地図

経路データ

SID SEASON NUMBER BASIN SUBBASIN NAME ISO_TIME NATURE LAT LON WMO_WIND WMO_PRES WMO_AGENCY TRACK_TYPE DIST2LAND LANDFALL IFLAG USA_AGENCY USA_ATCF_ID USA_LAT USA_LON USA_RECORD USA_STATUS USA_WIND USA_PRES USA_SSHS USA_R34_NE USA_R34_SE USA_R34_SW USA_R34_NW USA_R50_NE USA_R50_SE USA_R50_SW USA_R50_NW USA_R64_NE USA_R64_SE USA_R64_SW USA_R64_NW USA_POCI USA_ROCI USA_RMW USA_EYE TOKYO_LAT TOKYO_LON TOKYO_GRADE TOKYO_WIND TOKYO_PRES TOKYO_R50_DIR TOKYO_R50_LONG TOKYO_R50_SHORT TOKYO_R30_DIR TOKYO_R30_LONG TOKYO_R30_SHORT TOKYO_LAND CMA_LAT CMA_LON CMA_CAT CMA_WIND CMA_PRES HKO_LAT HKO_LON HKO_CAT HKO_WIND HKO_PRES NEWDELHI_LAT NEWDELHI_LON NEWDELHI_GRADE NEWDELHI_WIND NEWDELHI_PRES NEWDELHI_CI NEWDELHI_DP NEWDELHI_POCI REUNION_LAT REUNION_LON REUNION_TYPE REUNION_WIND REUNION_PRES REUNION_TNUM REUNION_CI REUNION_RMW REUNION_R34_NE REUNION_R34_SE REUNION_R34_SW REUNION_R34_NW REUNION_R50_NE REUNION_R50_SE REUNION_R50_SW REUNION_R50_NW REUNION_R64_NE REUNION_R64_SE REUNION_R64_SW REUNION_R64_NW BOM_LAT BOM_LON BOM_TYPE BOM_WIND BOM_PRES BOM_TNUM BOM_CI BOM_RMW BOM_R34_NE BOM_R34_SE BOM_R34_SW BOM_R34_NW BOM_R50_NE BOM_R50_SE BOM_R50_SW BOM_R50_NW BOM_R64_NE BOM_R64_SE BOM_R64_SW BOM_R64_NW BOM_ROCI BOM_POCI BOM_EYE BOM_POS_METHOD BOM_PRES_METHOD NADI_LAT NADI_LON NADI_CAT NADI_WIND NADI_PRES WELLINGTON_LAT WELLINGTON_LON WELLINGTON_WIND WELLINGTON_PRES DS824_LAT DS824_LON DS824_STAGE DS824_WIND DS824_PRES TD9636_LAT TD9636_LON TD9636_STAGE TD9636_WIND TD9636_PRES TD9635_LAT TD9635_LON TD9635_WIND TD9635_PRES TD9635_ROCI NEUMANN_LAT NEUMANN_LON NEUMANN_CLASS NEUMANN_WIND NEUMANN_PRES MLC_LAT MLC_LON MLC_CLASS MLC_WIND MLC_PRES USA_GUST BOM_GUST BOM_GUST_PER REUNION_GUST REUNION_GUST_PER USA_SEAHGT USA_SEARAD_NE USA_SEARAD_SE USA_SEARAD_SW USA_SEARAD_NW STORM_SPEED STORM_DIR
1959060S12059 1959 23 SI MM NOT_NAMED 1959-03-01 06:00:00 TS -12.2000 58.6000 main 889 885 O________OO___ jtwc_sh SH231959 -12.2000 58.6000 -1 -12.2000 58.6000 TC 25 -12.2000 58.6000 7 9 269
1959060S12059 1959 23 SI MM NOT_NAMED 1959-03-01 09:00:00 TS -12.2048 58.1608 main 885 843 P________PP___ SH231959 -12.2001 58.1575 -1 -12.2001 58.1575 TC 25 -12.2141 58.1673 7 9 270
1959060S12059 1959 23 SI MM NOT_NAMED 1959-03-01 12:00:00 TS -12.2074 57.7059 main 843 790 O________OP___ jtwc_sh SH231959 -12.2000 57.7000 -1 -12.2000 57.7000 TC 25 -12.2223 57.7177 7 9 270
1959060S12059 1959 23 SI MM NOT_NAMED 1959-03-01 15:00:00 TS -12.2064 57.2214 main 790 737 P________PP___ SH231959 -12.1999 57.2150 -1 -12.1999 57.2150 TC 25 -12.2194 57.2342 7 10 270
1959060S12059 1959 23 SI MM NOT_NAMED 1959-03-01 18:00:00 TS -12.2000 56.7000 main 737 685 O________OO___ jtwc_sh SH231959 -12.2000 56.7000 -1 -12.2000 56.7000 TC 25 -12.2000 56.7000 1 11 271
1959060S12059 1959 23 SI MM NOT_NAMED 1959-03-01 21:00:00 TS -12.1835 56.1373 main 674 622 P________PP___ SH231959 -12.1925 56.1500 -1 -12.1925 56.1500 TC 25 -12.1656 56.1120 1 11 271
1959060S12059 1959 23 SI MM NOT_NAMED 1959-03-02 00:00:00 TS -12.1820 55.5741 main 622 558 O________OP___ jtwc_sh SH231959 -12.2000 55.6000 -1 -12.2000 55.6000 TC 25 -12.1459 55.5223 1 11 269
1959060S12059 1959 23 SI MM NOT_NAMED 1959-03-02 03:00:00 TS -12.1961 55.0205 main 558 513 P________PP___ SH231959 -12.2051 55.0325 -1 -12.2051 55.0325 TC 25 -12.1781 54.9965 1 9 260
1959060S12059 1959 23 SI MM NOT_NAMED 1959-03-02 06:00:00 TS -12.3538 54.6231 reunion main 511 495 O____O___OO___ jtwc_sh SH231959 -12.3000 54.6000 -1 -13.0000 54.9000 99 9.90000 -12.3000 54.6000 TC 25 -12.3000 54.6000 1 7 229
1959060S12059 1959 23 SI MM NOT_NAMED 1959-03-02 09:00:00 TS -12.6584 54.4832 main 492 484 P____P___PP___ SH231959 -12.5473 54.4250 -1 -13.2915 54.8720 99 -12.5473 54.4250 TC 25 -12.5641 54.4053 1 7 192
1959060S12059 1959 23 SI MM NOT_NAMED 1959-03-02 12:00:00 TS -13.0410 54.4730 main 484 475 O____P___OP___ jtwc_sh SH231959 -12.9000 54.4000 -1 -13.5826 54.8419 99 -12.9000 54.4000 TC 25 -12.9168 54.3423 1 8 0
1959060S12059 1959 23 SI MM NOT_NAMED 1959-03-02 15:00:00 TS -13.4460 54.4839 main 475 458 P____P___PP___ SH231959 -13.3000 54.3849 -1 -13.8730 54.8076 99 -13.3000 54.3849 TC 30 -13.3112 54.3583 1 8 0
1959060S12059 1959 23 SI MM NOT_NAMED 1959-03-02 18:00:00 TS -13.8156 54.4917 main 458 447 O____P___OO___ jtwc_sh SH231959 -13.7000 54.4000 -1 -14.1622 54.7670 99 -13.7000 54.4000 TC 35 -13.7000 54.4000 2 7 0
1959060S12059 1959 23 SI MM NOT_NAMED 1959-03-02 21:00:00 TS -14.1215 54.4779 main 447 439 P____P___PP___ SH231959 -14.0150 54.4000 -1 -14.4499 54.7180 99 -14.0150 54.4000 TC 35 -14.0062 54.3936 2 6 181
1959060S12059 1959 23 SI MM NOT_NAMED 1959-03-03 00:00:00 TS -14.4089 54.4646 main 439 433 O____P___OP___ jtwc_sh SH231959 -14.3000 54.4000 -1 -14.7357 54.6586 99 -14.3000 54.4000 TC 35 -14.3000 54.3997 2 6 0
1959060S12059 1959 23 SI MM NOT_NAMED 1959-03-03 03:00:00 TS -14.6995 54.4519 main 433 419 P____P___PP___ SH231959 -14.5925 54.4075 -1 -15.0192 54.5867 99 -14.5925 54.4075 TC 50 -14.5937 54.4061 2 6 183
1959060S12059 1959 23 SI MM NOT_NAMED 1959-03-03 06:00:00 TS -15.0000 54.4250 reunion main 419 418 O____O___OO___ jtwc_sh SH231959 -14.9000 54.4000 -1 -15.3000 54.5000 99 9.90000 -14.9000 54.4000 TC 65 -14.9000 54.4000 4 6 187
1959060S12059 1959 23 SI MM NOT_NAMED 1959-03-03 09:00:00 TS -15.3288 54.3743 main 418 407 P____P___PP___ SH231959 -15.2425 54.3575 -1 -15.5783 54.3976 99 -15.2425 54.3575 TC 65 -15.2518 54.3846 4 7 190
1959060S12059 1959 23 SI MM NOT_NAMED 1959-03-03 12:00:00 TS -15.6679 54.3088 main 408 408 O____P___OP___ jtwc_sh SH231959 -15.6000 54.3000 -1 -15.8566 54.2831 99 -15.6000 54.3000 TC 65 -15.6149 54.3523 4 7 190
1959060S12059 1959 23 SI MM NOT_NAMED 1959-03-03 15:00:00 TS -16.0096 54.2462 main 401 401 P____P___PP___ SH231959 -15.9650 54.2649 -1 -16.1380 54.1609 99 -15.9650 54.2649 TC 65 -15.9705 54.2939 4 7 192
1959060S12059 1959 23 SI MM NOT_NAMED 1959-03-03 18:00:00 TS -16.3314 54.1590 main 408 397 O____P___OO___ jtwc_sh SH231959 -16.3000 54.2000 -1 -16.4255 54.0359 99 -16.3000 54.2000 TC 65 -16.3000 54.2000 4 6 200
1959060S12059 1959 23 SI MM NOT_NAMED 1959-03-03 21:00:00 TS -16.6007 54.0256 main 397 391 P____P___PP___ SH231959 -16.5650 54.0725 -1 -16.7224 53.9126 99 -16.5650 54.0725 TC 65 -16.5505 54.0447 4 6 208
1959060S12059 1959 23 SI MM NOT_NAMED 1959-03-04 00:00:00 TS -16.8523 53.8633 main 400 385 O____P___OP___ jtwc_sh SH231959 -16.8000 53.9000 -1 -17.0316 53.7957 99 -16.8000 53.9000 TC 65 -16.7777 53.8576 4 6 213
1959060S12059 1959 23 SI MM NOT_NAMED 1959-03-04 03:00:00 TS -17.1069 53.6854 main 390 380 P____P___PP___ SH231959 -17.0275 53.6925 -1 -17.3565 53.6899 99 -17.0275 53.6925 TC 65 -17.0161 53.6666 4 6 211
1959060S12059 1959 23 SI MM NOT_NAMED 1959-03-04 06:00:00 TS -17.4000 53.5250 reunion main 384 384 O____O___OO___ jtwc_sh SH231959 -17.3000 53.5000 -1 -17.7000 53.6000 99 9.90000 -17.3000 53.5000 TC 65 -17.3000 53.5000 4 7 202
1959060S12059 1959 23 SI MM NOT_NAMED 1959-03-04 09:00:00 TS -17.7705 53.4100 main 395 376 P____P___PP___ SH231959 -17.6700 53.3775 -1 -18.0591 53.5091 99 -17.6700 53.3775 TC 65 -17.6828 53.3761 4 8 194
1959060S12059 1959 23 SI MM NOT_NAMED 1959-03-04 12:00:00 TS -18.1871 53.3279 main 376 340 O____P___OP___ jtwc_sh SH231959 -18.1000 53.3000 -1 -18.4358 53.4288 99 -18.1000 53.3000 TC 65 -18.1124 53.2828 4 9 190
1959060S12059 1959 23 SI MM NOT_NAMED 1959-03-04 15:00:00 TS -18.6262 53.2603 main 340 313 P____P___PP___ SH231959 -18.5575 53.2275 -1 -18.8288 53.3633 99 -18.5575 53.2275 TC 65 -18.5609 53.2230 4 9 186
1959060S12059 1959 23 SI MM NOT_NAMED 1959-03-04 18:00:00 TS -19.0593 53.2291 main 305 282 O____P___OO___ jtwc_sh SH231959 -19.0000 53.2000 -1 -19.2372 53.3165 99 -19.0000 53.2000 TC 65 -19.0000 53.2000 4 8 0
1959060S12059 1959 23 SI MM NOT_NAMED 1959-03-04 21:00:00 TS -19.4390 53.2420 main 282 245 P____P___PP___ SH231959 -19.3575 53.2349 -1 -19.6596 53.2925 99 -19.3575 53.2349 TC 65 -19.3812 53.2058 4 8 176
1959060S12059 1959 23 SI MM NOT_NAMED 1959-03-05 00:00:00 TS -19.8112 53.2858 main 245 221 O____P___OP___ jtwc_sh SH231959 -19.7000 53.3000 -1 -20.0950 53.2957 99 -19.7000 53.3000 TC 65 -19.7500 53.2474 4 8 173
1959060S12059 1959 23 SI MM NOT_NAMED 1959-03-05 03:00:00 TS -20.2077 53.3326 main 221 195 P____P___PP___ SH231959 -20.0850 53.3426 -1 -20.5422 53.3300 99 -20.0850 53.3426 TC 65 -20.1187 53.3153 4 8 173
1959060S12059 1959 23 SI MM NOT_NAMED 1959-03-05 06:00:00 TS -20.6250 53.4000 reunion main 195 176 O____O___OO___ jtwc_sh SH231959 -20.5000 53.4000 -1 -21.0000 53.4000 99 9.90000 -20.5000 53.4000 TC 65 -20.5000 53.4000 4 9 170
1959060S12059 1959 23 SI MM NOT_NAMED 1959-03-05 09:00:00 TS -21.0836 53.4987 main 176 167 P____P___PP___ SH231959 -20.9500 53.4925 -1 -21.5115 53.5284 99 -20.9500 53.4925 TC 65 -20.9228 53.4815 4 10 167
1959060S12059 1959 23 SI MM NOT_NAMED 1959-03-05 12:00:00 TS -21.5499 53.6186 main 171 169 O____P___OP___ jtwc_sh SH231959 -21.4000 53.6000 -1 -22.0422 53.6969 99 -21.4000 53.6000 TC 65 -21.3575 53.5775 4 9 166
1959060S12059 1959 23 SI MM NOT_NAMED 1959-03-05 15:00:00 TS -21.9993 53.7452 main 182 173 P____P___PP___ SH231959 -21.8150 53.7001 -1 -22.5790 53.8962 99 -21.8150 53.7001 TC 65 -21.7884 53.6847 4 9 165
1959060S12059 1959 23 SI MM NOT_NAMED 1959-03-05 18:00:00 TS -22.4272 53.8791 main 189 189 O____P___OO___ jtwc_sh SH231959 -22.2000 53.8000 -1 -23.1088 54.1162 99 -22.2000 53.8000 TC 65 -22.2000 53.8000 4 9 164
1959060S12059 1959 23 SI MM NOT_NAMED 1959-03-05 21:00:00 TS -22.8263 54.0086 main 214 214 P____P___PP___ SH231959 -22.5575 53.8926 -1 -23.6187 54.3470 99 -22.5575 53.8926 TC 65 -22.5714 53.9020 4 8 162
1959060S12059 1959 23 SI MM NOT_NAMED 1959-03-06 00:00:00 TS -23.2045 54.1479 main 245 240 O____P___OP___ jtwc_sh SH231959 -22.9000 54.0000 -1 -24.0958 54.5784 99 -22.9000 54.0000 TC 65 -22.9223 54.0132 4 8 160
1959060S12059 1959 23 SI MM NOT_NAMED 1959-03-06 03:00:00 TS -23.5723 54.3031 main 276 276 P____P___PP___ SH231959 -23.2500 54.1351 -1 -24.5272 54.7996 99 -23.2500 54.1351 TC 65 -23.2620 54.1428 4 8 157
1959060S12059 1959 23 SI MM NOT_NAMED 1959-03-06 06:00:00 TS -23.9250 54.4750 reunion main 301 301 O____O___OO___ jtwc_sh SH231959 -23.6000 54.3000 -1 -24.9000 55.0000 99 9.90000 -23.6000 54.3000 TC 65 -23.6000 54.3000 4 8 155
1959060S12059 1959 23 SI MM NOT_NAMED 1959-03-06 09:00:00 TS -24.2658 54.6594 main 337 337 P____P___PP___ SH231959 -23.9500 54.4851 -1 -25.2052 55.1711 99 -23.9500 54.4851 TC 65 -23.9582 54.4961 4 8 152
1959060S12059 1959 23 SI MM NOT_NAMED 1959-03-06 12:00:00 TS -24.5908 54.8585 main 364 364 O____P___OP___ jtwc_sh SH231959 -24.3000 54.7000 -1 -25.4483 55.3140 99 -24.3000 54.7000 TC 65 -24.3151 54.7199 4 7 150
1959060S12059 1959 23 SI MM NOT_NAMED 1959-03-06 15:00:00 TS -24.9044 55.0728 main 394 394 P____P___PP___ SH231959 -24.6575 54.9500 -1 -25.6381 55.4326 99 -24.6575 54.9500 TC 65 -24.6644 54.9587 4 7 147
1959060S12059 1959 23 SI MM NOT_NAMED 1959-03-06 18:00:00 TS -25.1959 55.2827 main 425 425 O____P___OO___ jtwc_sh SH231959 -25.0000 55.2000 -1 -25.7835 55.5308 99 -25.0000 55.2000 TC 65 -25.0000 55.2000 4 7 148
1959060S12059 1959 23 SI MM NOT_NAMED 1959-03-06 21:00:00 TS -25.4547 55.4596 main 458 458 P____P___PP___ SH231959 -25.3074 55.4003 -1 -25.8936 55.6125 99 -25.3074 55.4003 TC 50 -25.3102 55.4255 4 6 147
1959060S12059 1959 23 SI MM NOT_NAMED 1959-03-07 00:00:00 TS -25.6774 55.6299 main 480 480 O____P___OP___ jtwc_sh SH231959 -25.6000 55.6000 -1 -25.9771 55.6819 99 -25.6000 55.6000 TC 35 -25.6074 55.6507 4 6 143
1959060S12059 1959 23 SI MM NOT_NAMED 1959-03-07 03:00:00 TS -25.9207 55.8420 main 503 503 P____P___PP___ SH231959 -25.9000 55.8500 -1 -26.0430 55.7430 99 -25.9000 55.8500 TC 35 -25.9008 55.8755 4 7 142
1959060S12059 1959 23 SI MM NOT_NAMED 1959-03-07 06:00:00 TS -26.1923 56.0769 reunion main 538 538 O____O___OO___ jtwc_sh SH231959 -26.2000 56.1000 -1 -26.1000 55.8000 99 9.90000 -26.2000 56.1000 TC 35 -26.2000 56.1000 2 7 144
1959060S12059 1959 23 SI MM NOT_NAMED 1959-03-07 09:00:00 TS -26.5036 56.3099 main 574 574 P________PP___ SH231959 -26.4924 56.3003 -1 99 -26.4924 56.3003 TC 35 -26.5259 56.3292 2 7 148
1959060S12059 1959 23 SI MM NOT_NAMED 1959-03-07 12:00:00 TS -26.8191 56.5192 main 610 610 O________OP___ jtwc_sh SH231959 -26.8000 56.5000 -1 99 -26.8000 56.5000 TC 35 -26.8574 56.5576 2 8 149
1959060S12059 1959 23 SI MM NOT_NAMED 1959-03-07 15:00:00 TS -27.1668 56.7607 main 659 659 P________PP___ SH231959 -27.1575 56.7499 -1 99 -27.1575 56.7499 TC 35 -27.1853 56.7823 2 8 148
1959060S12059 1959 23 SI MM NOT_NAMED 1959-03-07 18:00:00 TS -27.5000 57.0000 main 696 696 O________OO___ jtwc_sh SH231959 -27.5000 57.0000 -1 99 -27.5000 57.0000 TC 35 -27.5000 57.0000 2 7 147
1959060S12059 1959 23 SI MM NOT_NAMED 1959-03-07 21:00:00 TS -27.7612 57.2026 main 733 733 P________PP___ SH231959 -27.7574 57.2078 -1 99 -27.7574 57.2078 TC 35 -27.7687 57.1921 2 6 146
1959060S12059 1959 23 SI MM NOT_NAMED 1959-03-08 00:00:00 TS -28.0090 57.3931 main 759 759 O________OP___ jtwc_sh SH231959 -28.0000 57.4000 -1 99 -28.0000 57.4000 TC 35 -28.0270 57.3793 2 6 147
1959060S12059 1959 23 SI MM NOT_NAMED 1959-03-08 03:00:00 TS -28.2839 57.5824 main 796 796 P________PP___ SH231959 -28.2774 57.5853 -1 99 -28.2774 57.5853 TC 35 -28.2968 57.5767 2 7 149
1959060S12059 1959 23 SI MM NOT_NAMED 1959-03-08 06:00:00 TS -28.6000 57.8000 main 834 834 O________OO___ jtwc_sh SH231959 -28.6000 57.8000 -1 -28.6000 57.8000 TC 35 -28.6000 57.8000 2 8 148
1959060S12059 1959 23 SI MM NOT_NAMED 1959-03-08 09:00:00 TS -28.9835 58.0815 main 885 885 P________PP___ SH231959 -28.9850 58.0850 -1 -28.9850 58.0850 TC 35 -28.9805 58.0747 2 10 147
1959060S12059 1959 23 SI MM NOT_NAMED 1959-03-08 12:00:00 TS -29.3976 58.3922 main 936 936 O________OP___ jtwc_sh SH231959 -29.4000 58.4000 -1 -29.4000 58.4000 TC 35 -29.3927 58.3766 2 10 147
1959060S12059 1959 23 SI MM NOT_NAMED 1959-03-08 15:00:00 TS -29.8128 58.6968 main 988 988 P________PP___ SH231959 -29.8149 58.7001 -1 -29.8149 58.7001 TC 35 -29.8086 58.6903 2 10 147
1959060S12059 1959 23 SI MM NOT_NAMED 1959-03-08 18:00:00 TS -30.2000 59.0000 main 1040 1040 O________OO___ jtwc_sh SH231959 -30.2000 59.0000 -1 -30.2000 59.0000 TC 35 -30.2000 59.0000 2 9 144
1959060S12059 1959 23 SI MM NOT_NAMED 1959-03-08 21:00:00 TS -30.5253 59.3027 main 1081 1081 P________PP___ SH231959 -30.5150 59.3077 -1 -30.5150 59.3077 TC 35 -30.5459 59.2926 2 8 141
1959060S12059 1959 23 SI MM NOT_NAMED 1959-03-09 00:00:00 TS -30.8175 59.5900 main 1122 1122 O________OP___ jtwc_sh SH231959 -30.8000 59.6000 -1 -30.8000 59.6000 TC 35 -30.8526 59.5699 2 8 141
1959060S12059 1959 23 SI MM NOT_NAMED 1959-03-09 03:00:00 TS -31.1077 59.8521 main 1164 1164 P________PP___ SH231959 -31.0951 59.8597 -1 -31.0951 59.8597 TC 35 -31.1330 59.8371 2 7 143
1959060S12059 1959 23 SI MM NOT_NAMED 1959-03-09 06:00:00 TS -31.4000 60.1000 main 1202 O________OO___ jtwc_sh SH231959 -31.4000 60.1000 -1 -31.4000 60.1000 TC 35 -31.4000 60.1000 2 7 144

IBTrACS Databaseについて

本データベースは、米国NOAAが公開する1842年以降の世界の熱帯低気圧のベストトラックデータアーカイブInternational Best Track Archive for Climate Stewardship (IBTrACS)を、ウェブで閲覧しやすい形式に変換したものです。

最終更新日:2021-10-21